YJCW weather

Jacobs Well Airport
Queensland, Australia

Public forecast

Using degrees Celsius for public forecast. Weather courtesy of forecast.io.

Closest aviation weather report (METAR) to Jacobs Well Airport

Closest report is Brisbane International Airport, 25.5 nm (47.2 km) NNW. Retrieved 2019/11/22 11:30 UTC (12 minutes ago):

YBBN 221130Z 03016KT 9999 SCT020 23/18 Q1017 NOSIG

Closest aviation forecast (TAF) to Jacobs Well Airport

Forecast is more than 6 hours old.

Closest forecast is Brisbane International Airport, 25.5 nm (47.2 km) NNW. Retrieved 2019-11-22 00:00 UTC (12 hours ago):

TAF YBBN 212320Z 2200/2306 01010KT 9999 HZ FEW030 FM220100 03014KT 8000 FU HZ FEW035 FM221400 34010KT 9000 FU HZ SCT025 FM230200 03014KT 8000 FU HZ FEW035 TEMPO 2202/2210 5000 FU NSC